Time;durP1;ratioP1;P1;durP2;ratioP2;P2;SDS_P1;SDS_P2;PMS_P1;PMS_P2;Temp;Humidity;BMP_temperature;BMP_pressure;BME280_temperature;BME280_humidity;BME280_pressure;Samples;Min_cycle;Max_cycle;Signal;HPM_P1;HPM_P2
2023/11/04 00:01:29;;;;;;;4.23;3.93;;;3.40;99.90;;;3.87;100.00;95813.16;10485351;28;20310;-64
2023/11/04 00:06:32;;;;;;;3.83;3.53;;;3.30;99.90;;;3.85;100.00;95813.06;10483639;28;20231;-64
2023/11/04 00:11:36;;;;;;;4.60;3.70;;;3.30;99.90;;;3.82;100.00;95813.78;10480564;28;20232;-64
2023/11/04 00:16:40;;;;;;;4.40;4.00;;;3.20;99.90;;;3.78;100.00;95832.13;10480616;28;20224;-64
2023/11/04 00:21:43;;;;;;;5.03;4.13;;;3.20;99.90;;;3.74;100.00;95826.81;10481628;28;20228;-66
2023/11/04 00:26:46;;;;;;;4.67;4.27;;;3.10;99.90;;;3.84;100.00;95839.13;10480801;28;20611;-64
2023/11/04 00:31:51;;;;;;;4.60;4.20;;;3.20;99.90;;;3.70;100.00;95832.53;10483057;28;20282;-64
2023/11/04 00:36:54;;;;;;;4.83;4.53;;;3.20;99.90;;;3.71;100.00;95845.22;10483512;28;20243;-64
2023/11/04 00:41:57;;;;;;;4.73;4.43;;;3.10;99.90;;;3.58;100.00;95843.75;10481155;28;20231;-64
2023/11/04 00:47:02;;;;;;;4.37;4.07;;;3.00;99.90;;;3.59;100.00;95842.94;10484874;28;20236;-65
2023/11/04 00:52:06;;;;;;;5.20;4.80;;;3.00;99.90;;;3.58;100.00;95843.75;10481901;28;20732;-64
2023/11/04 00:57:10;;;;;;;4.67;4.37;;;3.00;99.90;;;3.58;100.00;95847.94;10480226;28;20235;-66
2023/11/04 01:02:14;;;;;;;4.77;4.37;;;3.00;99.90;;;3.60;100.00;95856.44;10473513;22;20228;-63
2023/11/04 01:07:18;;;;;;;5.10;4.80;;;3.00;99.90;;;3.46;100.00;95855.72;10402046;28;20232;-62
2023/11/04 01:12:21;;;;;;;5.27;4.87;;;2.90;99.90;;;3.48;100.00;95860.88;10386800;28;20247;-62
2023/11/04 01:17:26;;;;;;;4.57;4.27;;;3.00;99.90;;;3.47;100.00;95860.00;10364411;28;20234;-62
2023/11/04 01:22:29;;;;;;;4.43;4.13;;;3.00;99.90;;;3.60;100.00;95861.50;10366183;28;20318;-62
2023/11/04 01:27:32;;;;;;;4.60;4.20;;;3.10;99.90;;;3.63;100.00;95855.72;10369405;28;20230;-62
2023/11/04 01:32:37;;;;;;;5.23;4.83;;;3.10;99.90;;;3.64;100.00;95860.88;10367137;28;20237;-62
2023/11/04 01:37:41;;;;;;;4.63;4.23;;;3.20;99.90;;;3.90;100.00;95862.19;10367481;28;20237;-62
2023/11/04 01:42:44;;;;;;;4.30;4.00;;;3.30;99.90;;;3.98;100.00;95865.97;10374479;28;20230;-62
2023/11/04 01:47:49;;;;;;;4.70;4.40;;;3.30;99.90;;;3.89;100.00;95862.09;10368061;28;20227;-62
2023/11/04 01:52:52;;;;;;;5.40;5.00;;;3.30;99.90;;;3.88;100.00;95856.16;10367851;28;20325;-60
2023/11/04 01:57:56;;;;;;;5.67;5.17;;;3.30;99.90;;;3.86;100.00;95845.13;10365403;28;20235;-60
2023/11/04 02:03:01;;;;;;;5.40;4.90;;;3.30;99.90;;;3.77;100.00;95835.41;10372269;28;20230;-62
2023/11/04 02:08:05;;;;;;;4.73;4.37;;;3.20;99.90;;;3.63;100.00;95841.44;10366852;28;20606;-61
2023/11/04 02:13:09;;;;;;;4.90;4.50;;;3.10;99.90;;;3.73;100.00;95836.06;10366297;28;20231;-60
2023/11/04 02:18:13;;;;;;;5.30;4.80;;;3.20;99.90;;;3.85;100.00;95820.66;10367974;28;20236;-60
2023/11/04 02:23:18;;;;;;;4.60;4.23;;;3.40;99.90;;;3.98;100.00;95830.56;10364830;28;20264;-60
2023/11/04 02:28:22;;;;;;;5.30;4.80;;;3.60;99.90;;;4.17;100.00;95821.34;10362451;28;20230;-62
2023/11/04 02:33:25;;;;;;;4.40;4.10;;;3.60;99.90;;;4.07;100.00;95825.97;10365426;28;20238;-60
2023/11/04 02:38:30;;;;;;;4.40;4.20;;;3.50;99.90;;;3.97;100.00;95823.78;10370256;28;20283;-60
2023/11/04 02:43:33;;;;;;;5.00;4.67;;;3.40;99.90;;;3.89;100.00;95830.09;10367815;28;20236;-62
2023/11/04 02:48:36;;;;;;;4.73;4.33;;;3.30;99.90;;;3.66;100.00;95825.56;10365748;28;20214;-60
2023/11/04 02:53:41;;;;;;;5.27;4.87;;;3.00;99.90;;;3.56;100.00;95825.13;10366061;28;20250;-60
2023/11/04 02:58:44;;;;;;;4.60;4.40;;;3.00;99.90;;;3.43;100.00;95824.41;10360790;28;20671;-60
2023/11/04 03:03:47;;;;;;;4.40;4.20;;;2.80;99.90;;;3.39;100.00;95813.28;10366947;28;20233;-60
2023/11/04 03:08:52;;;;;;;5.47;3.73;;;2.80;99.90;;;3.28;100.00;95816.94;10362509;28;20226;-60
2023/11/04 03:13:55;;;;;;;4.67;4.37;;;2.70;99.90;;;3.30;100.00;95815.34;10365355;28;20234;-59
2023/11/04 03:18:59;;;;;;;4.10;3.80;;;2.70;99.90;;;3.23;100.00;95813.28;10365020;28;20227;-60
2023/11/04 03:24:04;;;;;;;4.27;3.97;;;2.70;99.90;;;3.18;100.00;95805.50;10366610;28;20233;-60
2023/11/04 03:29:07;;;;;;;5.60;5.10;;;2.70;99.90;;;3.24;100.00;95815.03;10365437;28;20241;-60
2023/11/04 03:34:10;;;;;;;5.63;5.13;;;2.70;99.90;;;3.12;100.00;95811.09;10364820;28;20716;-62
2023/11/04 03:39:15;;;;;;;4.70;4.30;;;2.60;99.90;;;3.12;100.00;95806.06;10365031;28;20225;-60
2023/11/04 03:44:18;;;;;;;3.90;3.60;;;2.60;99.90;;;3.12;100.00;95795.94;10356772;28;20229;-60
2023/11/04 03:49:21;;;;;;;4.67;4.27;;;2.60;99.90;;;3.02;100.00;95806.34;10363773;28;20226;-62
2023/11/04 03:54:26;;;;;;;35.70;6.83;;;2.50;99.90;;;2.98;100.00;95796.03;10367830;28;20238;-62
2023/11/04 03:59:29;;;;;;;4.70;4.30;;;2.50;99.90;;;2.84;100.00;95801.22;10359597;28;20705;-62
2023/11/04 04:04:32;;;;;;;4.77;4.40;;;2.30;99.90;;;2.88;100.00;95792.13;10363362;28;20229;-60
2023/11/04 04:09:37;;;;;;;5.90;4.40;;;2.40;99.90;;;2.75;100.00;95777.13;10358250;28;20317;-60
2023/11/04 04:14:44;;;;;;;4.60;4.20;;;2.20;99.90;;;2.63;100.00;95778.25;10363713;28;20235;-60
2023/11/04 04:19:48;;;;;;;4.33;4.03;;;2.10;99.90;;;2.67;100.00;95780.13;10359851;28;20359;-60
2023/11/04 04:24:53;;;;;;;4.30;4.00;;;2.20;99.90;;;2.68;100.00;95776.81;10362758;28;20376;-60
2023/11/04 04:29:56;;;;;;;4.03;3.73;;;2.20;99.90;;;2.86;100.00;95771.00;10360437;28;20223;-60
2023/11/04 04:35:00;;;;;;;3.93;3.63;;;2.30;99.90;;;2.84;100.00;95763.38;10357211;28;20239;-60
2023/11/04 04:40:05;;;;;;;5.40;4.47;;;2.30;99.90;;;2.55;100.00;95751.75;10366101;28;20229;-63
2023/11/04 04:45:09;;;;;;;4.03;3.83;;;2.00;99.90;;;2.58;100.00;95746.88;10362697;28;20253;-60
2023/11/04 04:50:13;;;;;;;4.83;4.53;;;2.00;99.90;;;2.42;100.00;95746.84;10357474;28;20312;-61
2023/11/04 04:55:17;;;;;;;5.73;5.40;;;1.90;99.90;;;2.56;100.00;95733.31;10366970;28;20230;-60
2023/11/04 05:00:22;;;;;;;6.50;6.00;;;2.10;99.90;;;2.76;100.00;95728.44;10360663;28;20316;-60
2023/11/04 05:05:25;;;;;;;7.80;7.20;;;2.30;99.90;;;2.87;100.00;95724.81;10366178;28;20226;-60
2023/11/04 05:10:30;;;;;;;4.93;4.10;;;2.30;99.90;;;2.77;100.00;95710.84;10368238;28;20233;-60
2023/11/04 05:15:33;;;;;;;4.17;3.80;;;2.20;99.90;;;2.73;100.00;95713.16;10367537;28;20230;-62
2023/11/04 05:20:37;;;;;;;4.57;4.17;;;2.20;99.90;;;2.81;100.00;95704.34;10370308;28;20321;-60
2023/11/04 05:25:41;;;;;;;4.63;4.30;;;2.20;99.90;;;2.69;100.00;95691.97;10367499;28;20233;-62
2023/11/04 05:30:44;;;;;;;4.43;4.13;;;2.30;99.90;;;2.85;100.00;95702.03;10364840;28;20610;-62
2023/11/04 05:35:48;;;;;;;4.93;4.53;;;2.30;99.90;;;2.96;100.00;95692.50;10364725;28;20264;-60
2023/11/04 05:40:52;;;;;;;11.33;8.27;;;2.30;99.90;;;2.78;100.00;95687.38;10366940;28;20225;-61
2023/11/04 05:45:55;;;;;;;4.93;4.50;;;2.20;99.90;;;2.70;100.00;95684.47;10360062;28;20226;-62
2023/11/04 05:50:59;;;;;;;6.00;5.50;;;2.20;99.90;;;2.70;100.00;95678.56;10367612;28;20236;-62
2023/11/04 05:56:04;;;;;;;7.30;6.70;;;2.20;99.90;;;2.61;100.00;95666.34;10364801;28;20300;-62
2023/11/04 06:01:07;;;;;;;9.20;8.40;;;2.10;99.90;;;2.70;100.00;95665.94;10366809;28;20234;-62
2023/11/04 06:06:10;;;;;;;9.93;9.03;;;2.20;99.90;;;2.69;100.00;95661.72;10365235;28;20313;-62
2023/11/04 06:11:15;;;;;;;6.50;5.80;;;2.20;99.90;;;2.92;100.00;95656.16;10359760;28;20294;-63
2023/11/04 06:16:18;;;;;;;7.80;7.20;;;2.40;99.90;;;3.05;100.00;95656.75;10360768;28;20237;-60
2023/11/04 06:21:22;;;;;;;8.60;8.00;;;2.50;99.90;;;3.13;100.00;95661.41;10361399;28;20239;-60
2023/11/04 06:26:27;;;;;;;8.00;7.30;;;2.60;99.90;;;3.22;100.00;95665.16;10361424;28;20336;-60
2023/11/04 06:31:30;;;;;;;7.77;7.17;;;2.70;99.90;;;3.37;100.00;95658.34;10362907;28;20233;-60
2023/11/04 06:36:34;;;;;;;11.93;11.13;;;2.80;99.90;;;3.41;100.00;95647.59;10357322;28;20265;-60
2023/11/04 06:41:40;;;;;;;12.27;11.47;;;2.90;99.90;;;3.52;100.00;95641.41;10357730;28;20277;-63
2023/11/04 06:46:48;;;;;;;5.57;5.17;;;2.90;99.90;;;3.55;100.00;95631.47;10357241;28;20229;-60
2023/11/04 06:51:51;;;;;;;7.90;7.30;;;3.00;99.90;;;3.81;100.00;95621.72;10359082;28;20315;-60
2023/11/04 06:56:56;;;;;;;7.43;6.93;;;3.20;99.90;;;4.13;100.00;95617.25;10363624;28;20260;-61
2023/11/04 07:01:59;;;;;;;5.83;5.43;;;3.60;99.90;;;4.44;100.00;95599.25;10358107;28;20234;-60
2023/11/04 07:07:02;;;;;;;7.27;6.67;;;3.80;99.90;;;4.63;100.00;95593.31;10356437;28;20925;-60
2023/11/04 07:12:07;;;;;;;7.07;6.53;;;4.00;99.90;;;4.76;100.00;95590.50;10360926;28;20234;-61
2023/11/04 07:17:10;;;;;;;6.80;6.20;;;4.10;99.90;;;4.83;100.00;95589.09;10359900;28;20290;-60
2023/11/04 07:22:13;;;;;;;13.60;12.23;;;4.10;99.90;;;5.00;100.00;95574.59;10356536;28;20693;-63
2023/11/04 07:27:18;;;;;;;8.70;8.00;;;4.30;99.90;;;5.32;100.00;95576.78;10360582;28;20521;-61
2023/11/04 07:32:21;;;;;;;6.97;6.37;;;4.60;99.90;;;5.46;100.00;95571.38;10354450;28;20245;-63
2023/11/04 07:37:24;;;;;;;8.03;7.33;;;4.70;99.90;;;5.60;100.00;95562.66;10364171;28;20749;-60
2023/11/04 07:42:29;;;;;;;6.33;5.73;;;5.00;99.90;;;6.03;100.00;95564.31;10359486;28;20230;-62
2023/11/04 07:47:33;;;;;;;5.40;5.00;;;5.40;99.90;;;6.24;100.00;95538.88;10361790;28;20250;-62
2023/11/04 07:52:36;;;;;;;5.90;5.50;;;5.70;99.90;;;6.72;100.00;95533.75;10359348;28;20229;-62
2023/11/04 07:57:57;;;;;;;4.73;4.33;;;6.20;99.90;;;7.30;100.00;95534.81;10356298;28;20741;-61
2023/11/04 08:03:00;;;;;;;5.77;5.13;;;6.80;99.90;;;7.05;100.00;95525.56;10359698;28;20238;-62
2023/11/04 08:08:06;;;;;;;4.63;4.30;;;6.50;99.90;;;7.05;100.00;95528.94;10359298;28;20223;-63
2023/11/04 08:13:11;;;;;;;5.27;4.97;;;6.50;99.90;;;7.01;100.00;95509.34;10360834;28;20257;-63
2023/11/04 08:18:15;;;;;;;5.87;5.47;;;6.60;99.90;;;7.40;100.00;95506.34;10357785;28;20813;-62
2023/11/04 08:23:19;;;;;;;6.03;5.53;;;7.00;99.90;;;7.87;100.00;95489.09;10368271;28;20234;-63
2023/11/04 08:28:24;;;;;;;6.10;5.70;;;7.50;99.90;;;8.17;100.00;95478.06;10349555;28;20229;-63
2023/11/04 08:33:28;;;;;;;5.20;4.80;;;7.80;99.90;;;8.66;100.00;95474.28;10364961;28;20298;-62
2023/11/04 08:38:32;;;;;;;6.67;6.10;;;8.20;99.90;;;9.02;100.00;95470.13;10373033;28;20234;-62
2023/11/04 08:43:37;;;;;;;5.20;4.65;;;8.60;99.90;;;9.45;97.56;95471.13;10369358;28;20724;-63
2023/11/04 08:48:40;;;;;;;3.42;3.22;;;9.00;99.90;;;9.52;95.92;95464.44;10368557;28;20218;-63
2023/11/04 08:53:44;;;;;;;3.50;3.30;;;9.10;99.90;;;9.77;95.62;95445.44;10366826;28;20237;-62
2023/11/04 08:58:48;;;;;;;3.00;2.80;;;9.30;99.90;;;10.11;90.94;95448.69;10362262;28;20230;-63
2023/11/04 09:03:55;;;;;;;3.50;3.20;;;9.60;99.90;;;10.21;88.43;95444.59;10360393;28;20237;-63
2023/11/04 09:09:07;;;;;;;27.67;16.02;;;9.70;99.90;;;10.17;90.31;95433.47;10357651;28;20218;-63
2023/11/04 09:14:11;;;;;;;2.83;2.60;;;9.60;99.90;;;10.57;82.91;95424.88;10359129;28;20230;-64
2023/11/04 09:19:14;;;;;;;3.00;2.80;;;10.00;99.90;;;10.66;80.33;95420.78;10352387;28;20581;-63
2023/11/04 09:24:18;;;;;;;5.32;4.30;;;10.00;99.90;;;10.51;85.94;95418.81;10342961;28;20729;-62
2023/11/04 09:29:23;;;;;;;3.25;3.00;;;9.90;99.90;;;10.58;84.40;95415.53;10360101;28;20230;-64
2023/11/04 09:34:29;;;;;;;141.30;88.90;;;9.90;99.90;;;10.72;84.53;95408.94;10360729;28;20840;-61
2023/11/04 09:39:32;;;;;;;15.80;10.88;;;10.00;99.90;;;11.14;79.99;95396.84;10358958;28;20702;-61
2023/11/04 09:44:37;;;;;;;2.22;2.13;;;10.40;99.90;;;11.32;77.51;95391.13;10364921;28;20223;-61
2023/11/04 09:49:40;;;;;;;3.28;3.03;;;10.70;99.90;;;11.66;76.45;95375.38;10361537;28;20250;-63
2023/11/04 09:54:46;;;;;;;1.60;1.50;;;11.00;99.90;;;11.95;71.88;95344.19;10359501;28;20338;-64
2023/11/04 09:59:51;;;;;;;2.15;2.05;;;11.40;99.90;;;11.87;73.63;95340.69;10357418;28;20280;-61
2023/11/04 10:04:54;;;;;;;1.73;1.63;;;11.30;99.90;;;12.05;73.20;95346.00;10359065;28;20234;-62
2023/11/04 10:09:58;;;;;;;2.13;1.83;;;11.40;99.90;;;11.92;73.49;95326.22;10359220;28;20284;-63
2023/11/04 10:15:02;;;;;;;2.13;1.75;;;11.30;99.90;;;11.97;73.31;95305.81;10359195;28;20289;-64
2023/11/04 10:20:11;;;;;;;2.08;1.98;;;11.30;99.90;;;12.19;72.46;95277.00;10358663;28;20226;-64
2023/11/04 10:25:14;;;;;;;2.05;1.90;;;11.50;99.90;;;11.96;70.67;95269.13;10370285;28;20230;-63
2023/11/04 10:30:19;;;;;;;1.80;1.70;;;11.30;99.90;;;12.23;69.74;95260.81;10366562;28;20305;-64
2023/11/04 10:35:23;;;;;;;1.80;1.70;;;11.50;99.90;;;12.35;68.25;95249.81;10363587;28;20321;-63
2023/11/04 10:40:27;;;;;;;1.60;1.50;;;11.70;99.90;;;12.42;66.06;95254.16;10357993;28;20705;-63
2023/11/04 10:45:40;;;;;;;1.80;1.70;;;11.90;99.90;;;12.52;62.59;95234.56;10354241;28;20236;-63
2023/11/04 10:50:55;;;;;;;2.78;2.28;;;12.00;99.90;;;12.56;62.40;95221.78;10360909;28;20607;-64
2023/11/04 10:56:02;;;;;;;2.20;2.00;;;12.10;99.90;;;12.47;60.81;95206.34;10365323;28;20731;-63
2023/11/04 11:01:08;;;;;;;2.10;1.70;;;12.10;99.90;;;12.34;63.61;95194.31;10359287;28;20229;-63
2023/11/04 11:06:11;;;;;;;1.67;1.58;;;11.80;99.90;;;12.25;63.63;95174.63;10363712;28;20235;-64
2023/11/04 11:11:22;;;;;;;1.67;1.58;;;11.60;99.90;;;12.45;62.94;95167.06;10362350;28;20226;-63
2023/11/04 11:16:28;;;;;;;1.58;1.48;;;11.80;99.90;;;12.50;60.86;95156.84;10365256;28;20237;-63
2023/11/04 11:21:32;;;;;;;1.50;1.40;;;12.00;99.90;;;12.39;61.34;95142.28;10364850;28;20288;-63
2023/11/04 11:26:46;;;;;;;1.42;1.33;;;11.80;99.90;;;12.24;62.43;95143.88;10366467;28;20280;-64
2023/11/04 11:31:53;;;;;;;1.80;1.70;;;11.60;99.90;;;12.22;63.10;95143.00;10362474;28;20227;-64
2023/11/04 11:36:59;;;;;;;1.88;1.77;;;11.40;99.90;;;12.36;60.32;95147.38;10362519;28;20257;-61
2023/11/04 11:42:04;;;;;;;1.70;1.60;;;11.60;99.90;;;12.55;60.75;95143.19;10360481;28;20227;-63
2023/11/04 11:47:09;;;;;;;1.50;1.50;;;11.80;99.90;;;12.55;61.48;95138.06;10363289;28;20245;-64
2023/11/04 11:52:13;;;;;;;2.40;2.20;;;11.80;99.90;;;12.65;60.21;95144.13;10357826;28;20697;-63
2023/11/04 11:57:16;;;;;;;2.13;2.00;;;11.90;99.90;;;12.60;57.61;95138.09;10361965;28;20971;-63
2023/11/04 12:02:21;;;;;;;1.90;1.80;;;12.10;99.90;;;12.37;57.61;95128.59;10360002;28;20254;-64
2023/11/04 12:07:26;;;;;;;2.38;1.98;;;12.00;99.90;;;12.43;58.21;95107.28;10359825;28;20226;-63
2023/11/04 12:12:29;;;;;;;2.38;2.05;;;11.90;99.90;;;12.34;58.79;95102.97;10361652;28;20226;-63
2023/11/04 12:17:35;;;;;;;1.80;1.70;;;11.60;99.90;;;12.31;59.15;95096.97;10359775;28;20233;-63
2023/11/04 12:22:39;;;;;;;1.85;1.75;;;11.70;99.90;;;12.18;59.20;95086.63;10360527;28;20789;-63
2023/11/04 12:27:47;;;;;;;1.65;1.65;;;11.60;99.90;;;12.03;59.66;95090.81;10356466;28;20304;-63
2023/11/04 12:32:53;;;;;;;1.60;1.50;;;11.40;99.90;;;11.89;61.16;95093.28;10349909;28;20233;-63
2023/11/04 12:37:58;;;;;;;2.08;1.98;;;11.20;99.90;;;11.61;62.67;95090.47;10354282;28;20604;-64
2023/11/04 12:43:03;;;;;;;1.98;1.88;;;10.90;99.90;;;11.70;59.52;95056.44;10353383;28;20230;-63
2023/11/04 12:48:09;;;;;;;2.35;2.25;;;11.30;99.90;;;11.47;60.63;95064.81;10356245;28;20214;-63
2023/11/04 12:53:13;;;;;;;2.03;1.70;;;11.00;99.90;;;11.60;59.31;95008.63;10353718;28;20230;-63
2023/11/04 12:58:16;;;;;;;2.15;2.05;;;11.10;99.90;;;11.40;59.80;94975.22;10352398;28;20230;-63
2023/11/04 13:03:21;;;;;;;2.40;2.20;;;11.00;99.90;;;11.26;61.69;94965.75;10359027;28;20227;-63
2023/11/04 13:08:24;;;;;;;2.20;1.80;;;10.70;99.90;;;11.00;62.73;94942.53;10355631;28;20258;-63
2023/11/04 13:13:27;;;;;;;1.90;1.80;;;10.50;99.90;;;10.99;64.14;94948.50;10355629;28;20606;-63
2023/11/04 13:18:32;;;;;;;1.98;1.88;;;10.50;99.90;;;11.06;61.28;94954.53;10360385;28;20238;-63
2023/11/04 13:23:35;;;;;;;1.80;1.70;;;10.60;99.90;;;11.12;60.83;94953.72;10363676;28;20254;-61
2023/11/04 13:28:38;;;;;;;1.73;1.63;;;10.50;99.90;;;11.18;62.69;94958.88;10366207;28;20225;-61
2023/11/04 13:33:43;;;;;;;2.15;2.05;;;10.50;99.90;;;11.39;60.68;94978.63;10368823;28;20311;-63
2023/11/04 13:38:46;;;;;;;1.88;1.77;;;10.70;99.90;;;11.36;61.92;94983.72;10357887;28;20281;-63
2023/11/04 13:43:54;;;;;;;2.00;1.90;;;10.60;99.90;;;11.15;65.38;94964.81;10362261;28;20795;-61
2023/11/04 13:49:01;;;;;;;2.05;1.90;;;10.50;99.90;;;11.15;64.46;94944.34;10362269;28;20236;-63
2023/11/04 13:54:05;;;;;;;2.08;1.90;;;10.70;99.90;;;10.78;68.00;94918.50;10361206;28;20252;-61
2023/11/04 13:59:09;;;;;;;2.30;2.10;;;10.40;99.90;;;10.52;68.08;94904.66;10369391;28;20667;-63
2023/11/04 14:04:14;;;;;;;2.28;2.17;;;10.30;99.90;;;10.51;68.95;94902.97;10364329;28;20230;-63
2023/11/04 14:09:17;;;;;;;1.80;1.70;;;10.10;99.90;;;10.66;66.38;94912.44;10361091;28;20269;-63
2023/11/04 14:14:21;;;;;;;2.20;2.00;;;10.30;99.90;;;10.63;66.61;94900.50;10362021;28;20234;-63
2023/11/04 14:19:26;;;;;;;1.83;1.73;;;10.20;99.90;;;10.65;66.33;94885.22;10362720;28;20316;-63
2023/11/04 14:24:29;;;;;;;1.65;1.65;;;10.30;99.90;;;10.56;67.16;94922.59;10359367;28;20222;-63
2023/11/04 14:29:33;;;;;;;2.20;2.05;;;10.20;99.90;;;10.54;69.44;94928.53;10357189;28;20230;-63
2023/11/04 14:34:37;;;;;;;1.80;1.70;;;10.10;99.90;;;10.46;71.21;94915.66;10358932;28;20223;-63
2023/11/04 14:39:42;;;;;;;1.88;1.77;;;10.00;99.90;;;10.37;71.78;94885.81;10354980;28;20234;-63
2023/11/04 14:44:46;;;;;;;2.03;1.92;;;10.00;99.90;;;10.24;76.38;94917.13;10357240;28;20801;-63
2023/11/04 14:49:51;;;;;;;2.30;2.10;;;9.80;99.90;;;9.95;78.44;94921.91;10356262;28;20261;-63
2023/11/04 14:54:54;;;;;;;1.85;1.75;;;9.50;99.90;;;9.69;82.75;94924.13;10356491;28;20226;-63
2023/11/04 14:59:57;;;;;;;2.30;2.20;;;9.30;99.90;;;9.66;80.56;94914.75;10357752;28;20226;-63
2023/11/04 15:05:01;;;;;;;2.25;1.88;;;9.40;99.90;;;9.60;79.59;94911.28;10354487;28;20229;-63
2023/11/04 15:10:07;;;;;;;2.13;2.03;;;9.60;99.90;;;9.63;81.51;94917.25;10359276;28;20258;-63
2023/11/04 15:15:10;;;;;;;1.92;1.77;;;9.30;99.90;;;9.60;80.11;94904.47;10357815;28;20296;-63
2023/11/04 15:20:16;;;;;;;1.70;1.60;;;9.40;99.90;;;9.62;79.42;94876.47;10357234;28;20245;-62
2023/11/04 15:25:19;;;;;;;2.20;2.10;;;9.40;99.90;;;9.46;79.43;94878.81;10359325;28;20714;-62
2023/11/04 15:30:24;;;;;;;2.00;1.90;;;9.20;99.90;;;9.72;78.70;94883.38;10352619;28;20238;-63
2023/11/04 15:35:29;;;;;;;2.53;1.80;;;9.30;99.90;;;9.98;76.76;94854.75;10355055;28;20234;-63
2023/11/04 15:40:32;;;;;;;1.85;1.80;;;9.70;99.90;;;9.91;77.45;94798.56;10350788;28;20241;-61
2023/11/04 15:45:36;;;;;;;1.85;1.75;;;9.60;99.90;;;9.90;77.01;94737.31;10353820;28;20244;-63
2023/11/04 15:50:40;;;;;;;2.10;2.00;;;9.80;99.90;;;9.83;80.90;94730.47;10355861;28;20372;-63
2023/11/04 15:55:43;;;;;;;1.98;1.85;;;9.80;99.90;;;9.71;83.40;94751.59;10356262;28;20234;-62
2023/11/04 16:00:47;;;;;;;1.83;1.73;;;9.70;99.90;;;9.68;86.42;94780.47;10350206;28;20225;-63
2023/11/04 16:05:52;;;;;;;1.90;1.80;;;9.60;99.90;;;9.53;88.20;94789.63;10357274;28;20501;-63
2023/11/04 16:10:55;;;;;;;1.90;1.80;;;9.60;99.90;;;9.53;89.00;94784.53;10354058;28;20589;-62
2023/11/04 16:15:58;;;;;;;2.10;1.90;;;9.50;99.90;;;9.45;90.42;94787.03;10355822;28;20237;-61
2023/11/04 16:21:06;;;;;;;1.90;1.80;;;9.30;99.90;;;9.48;92.22;94784.50;10357251;28;21911;-62
2023/11/04 16:26:12;;;;;;;2.17;2.08;;;9.30;99.90;;;9.60;90.93;94774.44;10357759;28;20227;-61
2023/11/04 16:31:23;;;;;;;2.40;2.25;;;9.40;99.90;;;9.67;91.45;94753.28;10356773;28;20248;-62
2023/11/04 16:36:27;;;;;;;1.70;1.70;;;9.40;99.90;;;9.70;89.65;94772.84;10358744;28;20236;-63
2023/11/04 16:41:31;;;;;;;1.83;1.80;;;9.50;99.90;;;9.80;88.50;94782.28;10361483;28;20590;-62
2023/11/04 16:46:35;;;;;;;2.00;1.80;;;9.50;99.90;;;9.93;87.10;94781.59;10361192;28;20229;-62
2023/11/04 16:51:41;;;;;;;1.67;1.65;;;9.70;99.90;;;10.03;87.75;94777.41;10360607;28;20245;-63
2023/11/04 16:56:49;;;;;;;2.17;2.00;;;9.70;99.90;;;10.09;86.97;94772.34;10360453;28;20643;-63
2023/11/04 17:01:52;;;;;;;2.35;2.25;;;9.80;99.90;;;10.07;86.77;94762.97;10358897;28;20249;-63
2023/11/04 17:06:57;;;;;;;2.05;1.95;;;9.70;99.90;;;10.15;86.10;94781.75;10360590;28;20233;-63
2023/11/04 17:12:00;;;;;;;1.70;1.70;;;9.90;99.90;;;10.09;86.51;94776.59;10360568;28;20839;-63
2023/11/04 17:17:04;;;;;;;2.05;1.95;;;9.90;99.90;;;10.16;86.36;94788.59;10359583;28;20230;-63
2023/11/04 17:22:09;;;;;;;1.45;1.45;;;10.00;99.90;;;10.18;87.07;94781.78;10359055;28;20226;-62
2023/11/04 17:27:12;;;;;;;1.65;1.55;;;10.00;99.90;;;10.20;87.09;94769.91;10362818;28;20226;-63
2023/11/04 17:32:16;;;;;;;1.90;1.80;;;10.00;99.90;;;10.22;87.09;94758.00;10360204;28;20321;-62
2023/11/04 17:37:20;;;;;;;1.80;1.70;;;9.90;99.90;;;10.12;86.73;94776.63;10360330;28;20218;-63
2023/11/04 17:42:24;;;;;;;2.10;2.00;;;9.70;99.90;;;10.16;86.87;94821.78;10359823;28;20222;-63
2023/11/04 17:47:27;;;;;;;2.00;1.90;;;9.60;99.90;;;10.15;86.54;94810.69;10359427;28;20226;-63
2023/11/04 17:52:31;;;;;;;1.98;1.88;;;9.60;99.90;;;10.19;86.60;94808.16;10359878;28;20230;-63
2023/11/04 17:57:35;;;;;;;1.70;1.70;;;9.60;99.90;;;10.39;85.58;94806.69;10361489;28;20231;-63
2023/11/04 18:02:38;;;;;;;1.90;1.80;;;9.70;99.90;;;10.38;84.92;94805.81;10351847;28;20237;-63
2023/11/04 18:07:43;;;;;;;1.80;1.70;;;9.70;99.90;;;10.33;83.86;94794.72;10361399;28;20226;-63
2023/11/04 18:12:46;;;;;;;1.75;1.65;;;9.80;99.90;;;10.48;82.91;94778.66;10358642;28;20237;-63
2023/11/04 18:17:50;;;;;;;1.92;1.83;;;10.00;99.90;;;10.45;83.08;94771.00;10354741;28;20222;-63
2023/11/04 18:22:54;;;;;;;1.90;1.80;;;10.00;99.90;;;10.51;82.69;94768.47;10356718;28;20227;-63
2023/11/04 18:27:58;;;;;;;1.80;1.80;;;9.90;99.90;;;10.44;83.64;94773.50;10360081;28;20230;-63
2023/11/04 18:33:08;;;;;;;1.83;1.73;;;9.80;99.90;;;10.69;81.74;94777.09;10361011;28;20233;-63
2023/11/04 18:38:12;;;;;;;1.77;1.70;;;10.10;99.90;;;10.59;82.15;94773.66;10361294;28;20990;-63
2023/11/04 18:43:16;;;;;;;1.52;1.42;;;10.00;99.90;;;10.59;82.35;94748.09;10360730;28;20710;-63
2023/11/04 18:48:19;;;;;;;1.70;1.60;;;10.00;99.90;;;10.77;81.37;94734.59;10362148;28;20655;-62
2023/11/04 18:53:25;;;;;;;1.63;1.58;;;10.10;99.90;;;10.89;79.94;94703.97;10362654;28;20241;-63
2023/11/04 18:58:28;;;;;;;1.95;1.85;;;10.30;99.90;;;10.89;79.54;94667.34;10359989;28;20284;-63
2023/11/04 19:03:31;;;;;;;1.80;1.70;;;10.30;99.90;;;10.91;78.92;94673.34;10361213;28;20226;-63
2023/11/04 19:08:36;;;;;;;2.60;2.40;;;10.40;99.90;;;11.00;78.36;94642.69;10364910;28;20269;-63
2023/11/04 19:13:41;;;;;;;1.85;1.75;;;10.30;99.90;;;10.94;78.28;94645.25;10357230;28;20237;-63
2023/11/04 19:18:44;;;;;;;1.88;1.63;;;10.40;99.90;;;10.91;77.92;94674.19;10356351;28;20762;-63
2023/11/04 19:23:49;;;;;;;1.88;1.50;;;10.30;99.90;;;10.51;81.48;94709.75;10360999;28;20225;-63
2023/11/04 19:28:53;;;;;;;2.25;1.30;;;10.00;99.90;;;10.67;79.63;94705.56;10356482;28;20218;-62
2023/11/04 19:33:56;;;;;;;1.50;1.40;;;10.10;99.90;;;10.86;80.14;94711.63;10357771;28;20556;-63
2023/11/04 19:39:01;;;;;;;1.50;1.50;;;10.20;99.90;;;10.83;80.05;94696.28;10359865;28;20226;-63
2023/11/04 19:44:04;;;;;;;3.10;2.90;;;10.10;99.90;;;10.98;78.38;94723.59;10357042;28;20586;-63
2023/11/04 19:49:08;;;;;;;2.15;2.05;;;10.40;99.90;;;10.86;79.57;94715.88;10358960;28;20245;-63
2023/11/04 19:54:13;;;;;;;1.80;1.70;;;10.20;99.90;;;10.94;78.21;94740.63;10357207;28;20234;-63
2023/11/04 19:59:16;;;;;;;1.52;1.42;;;10.40;99.90;;;10.87;79.60;94746.53;10356852;28;20218;-63
2023/11/04 20:04:19;;;;;;;1.90;1.80;;;10.20;99.90;;;11.15;77.35;94737.31;10362859;28;20226;-63
2023/11/04 20:09:26;;;;;;;1.80;1.70;;;10.60;99.90;;;11.21;76.57;94713.47;10360688;28;20222;-63
2023/11/04 20:14:32;;;;;;;3.10;1.75;;;10.70;99.90;;;11.22;77.27;94690.47;10356830;28;20226;-63
2023/11/04 20:19:36;;;;;;;1.73;1.70;;;10.60;99.90;;;11.21;76.95;94711.75;10353726;28;20234;-62
2023/11/04 20:24:46;;;;;;;2.05;1.63;;;10.70;99.90;;;11.21;76.88;94719.44;10357592;28;20617;-63
2023/11/04 20:29:51;;;;;;;1.58;1.55;;;10.80;99.90;;;11.12;77.90;94727.06;10354969;28;20233;-62
2023/11/04 20:34:54;;;;;;;1.67;1.55;;;10.70;99.90;;;11.18;77.15;94741.56;10353360;28;20624;-62
2023/11/04 20:39:58;;;;;;;1.40;1.40;;;10.90;99.90;;;11.28;77.08;94746.75;10364367;28;20724;-63
2023/11/04 20:45:04;;;;;;;1.38;1.38;;;10.90;99.90;;;11.18;77.34;94760.31;10358363;28;20226;-63
2023/11/04 20:50:08;;;;;;;1.40;1.30;;;10.80;99.90;;;11.20;77.81;94753.53;10353214;28;20232;-63
2023/11/04 20:55:12;;;;;;;1.52;1.52;;;10.70;99.90;;;11.30;76.50;94738.22;10357239;28;20606;-63
2023/11/04 21:00:16;;;;;;;1.30;1.20;;;10.90;99.90;;;11.29;76.76;94742.47;10355479;28;20222;-62
2023/11/04 21:05:19;;;;;;;1.48;1.48;;;11.00;99.90;;;11.30;77.12;94738.22;10356750;28;20611;-62
2023/11/04 21:10:25;;;;;;;1.30;1.20;;;11.00;99.90;;;11.30;77.10;94726.28;10360615;28;20791;-62
2023/11/04 21:15:29;;;;;;;1.58;1.50;;;10.90;99.90;;;11.30;77.35;94739.06;10356319;28;20321;-62